AirNav   Everest Fuels
 
 1563 users online  

2CL9 Mustang Airport
Galt, California, USA

GOING TO GALT?


FAA INFORMATION EFFECTIVE 04 NOVEMBER 2021

Location

FAA Identifier: 2CL9
Lat/Long: 38-20-03.6860N 121-18-12.8160W
38-20.061433N 121-18.213600W
38.3343572,-121.3035600
(estimated)
Elevation: 45 ft. / 14 m (estimated)
Variation: 16E (1990)
From city: 6 miles N of GALT, CA
Time zone: UTC -8 (UTC -7 during Daylight Saving Time)
Zip code: 95632

Airport Operations

Airport use: Private use. Permission required prior to landing
Activation date: 12/1992
Control tower: no
ARTCC: OAKLAND CENTER
FSS: RANCHO MURIETA FLIGHT SERVICE STATION
Attendance: UNATNDD
Wind indicator: yes
Segmented circle: no

Airport Communications

WX AWOS-3PT at MHR (13 nm N): 118.325 (916-366-3371)
WX ASOS at SAC (14 nm NW): PHONE 916-421-0923

Nearby radio navigation aids

VOR radial/distance  VOR name  Freq  Var
SACr102/13.4SACRAMENTO VORTAC115.2017E
MCCr150/20.5MC CLELLAN VOR/DME109.2017E
LINr301/21.0LINDEN VOR/DME114.8017E
HNWr211/35.0HANGTOWN VOR/DME115.5017E
CCRr047/39.0CONCORD VOR/DME117.0017E

Airport Services

Runway Information

Runway 7/25

Dimensions: 4000 x 40 ft. / 1219 x 12 m
Surface: asphalt
RUNWAY 7  RUNWAY 25
Traffic pattern: leftleft

Airport Ownership and Management from official FAA records

Ownership: Privately-owned
Owner: RICHARD BJELLAND
10565 ARNO ROAD
GALT, CA 95632-8557
Phone 209-745-6062
Manager: RICHARD BJELLAND
10565 ARNO ROAD
GALT, CA 95632-8557
Phone 209-745-6062

Airport Operational Statistics

Aircraft based on the field: 3
Single engine airplanes: 1
Multi engine airplanes: 1
Jet airplanes: 1
    

Additional Remarks

FOR CD CTC NORCAL APCH AT 916-361-6874.

Instrument Procedures

There are no published instrument procedures at 2CL9.

Some nearby airports with instrument procedures:

1O3 - Lodi Airport (8 nm S)
KMHR - Sacramento Mather Airport (13 nm N)
KSAC - Sacramento Executive Airport (14 nm NW)
KMCC - Mc Clellan Airfield (21 nm N)
O88 - Rio Vista Municipal Airport (21 nm SW)
 
Loc | Ops | Rwys | IFR | FBO | Links
Com | Nav | Svcs | Stats | Notes
Area around 2CL9 (Mustang Airport)
 
Road maps at: MapQuest Bing Google
 
Aerial photo
WARNING: Photo may not be current or correct
Aerial photo of 2CL9 (Mustang Airport)
Do you have a better or more recent aerial photo of Mustang Airport that you would like to share? If so, please send us your photo.

 
Sectional chart

 
Airport distance calculator
Flying to Mustang Airport? Find the distance to fly.

From to 2CL9

Sunrise and sunset
Times for 29-Nov-2021
 Local
(UTC-8)
 Zulu
(UTC)
Morning civil twilight06:3314:33
Sunrise07:0215:02
Sunset16:4500:45
Evening civil twilight17:1401:14

Current date and time
Zulu (UTC)  30-Nov-2021 00:08:26
Local (UTC-8)  29-Nov-2021 16:08:26
 
METAR
KMHR 
12nm N 
292355Z AUTO 33004KT 10SM CLR 19/10 A3009 RMK A01
KSAC 
14nm NW 
290845Z AUTO 00000KT 1/2SM FG VV005 07/07 A3020 RMK AO2 T00670067
KMCC 
20nm N 
292355Z AUTO 32004KT 10SM CLR 18/12 A3010 RMK AO2
TAF
KMHR 
12nm N 
291720Z 2918/3018 VRB04KT P6SM FEW250 FM300900 VRB02KT 4SM BR FEW250
KSAC 
14nm NW 
291720Z 2918/3018 VRB05KT P6SM FEW250 FM300500 VRB03KT 3SM BR FEW250 FM300800 VRB02KT 1/4SM FG VV002
NOTAMs
Click for the latest NOTAMs
NOTAMs are issued by the DoD/FAA and will open in a separate window not controlled by AirNav.

 

 
 

Would you like to see your business listed on this page?

 If your business provides an interesting product or service to pilots, flight crews, aircraft, or users of the Mustang Airport, you should consider listing it here.  To start the listing process, click on the button below
 
Add a business
 

Other Pages about Mustang Airport

Update a link
 
Copyright © AirNav, LLC. All rights reserved. Privacy Policy  Contact